Terminal Aerodrome Forecast
Issued by NWS Grand Rapids, MI

Home | Current Version | Previous Version | Text Only | Print | Product List | Glossary On
Versions: 1 2 3 4 5 6 7 8 9 10 11 12 13
842
FTUS43 KGRR 120520
TAFGRR
TAF
KGRR 120520Z 1206/1306 23007KT P6SM SCT035
     FM121200 26009KT 3SM -SHSN BR OVC030
     FM121400 27011KT 3SM -SHSN BR OVC025
     FM121600 29014G24KT 3SM -SHSN BLSN OVC025
     FM122200 32015G25KT P6SM BKN040=

USA.gov is the U.S. government's official web portal to all federal, state and local government web resources and services.